createdAt,value
2017-11-01T00:00:44.636Z,12.33
2017-11-01T00:03:13.022Z,11.70
2017-11-01T00:05:41.533Z,12.27
2017-11-01T00:08:09.844Z,10.77
2017-11-01T00:10:38.185Z,9.20
2017-11-01T00:13:08.262Z,10.80
2017-11-01T00:15:36.585Z,9.90
2017-11-01T00:18:05.356Z,10.50
2017-11-01T00:20:33.678Z,9.43
2017-11-01T00:23:02.034Z,9.30
2017-11-01T00:25:30.346Z,10.97
2017-11-01T00:27:58.686Z,9.17
2017-11-01T00:30:27.029Z,8.70
2017-11-01T00:32:55.345Z,8.73
2017-11-01T00:35:23.681Z,9.13
2017-11-01T00:37:52.069Z,7.70
2017-11-01T00:40:20.405Z,9.70
2017-11-01T00:42:48.701Z,7.43
2017-11-01T00:45:17.025Z,7.33
2017-11-01T00:47:45.387Z,6.60
2017-11-01T00:50:13.814Z,7.20
2017-11-01T00:52:42.320Z,7.70
2017-11-01T00:55:10.710Z,7.07
2017-11-01T00:57:39.337Z,6.60
2017-11-01T01:00:08.552Z,7.03
2017-11-01T01:02:36.889Z,7.03
2017-11-01T01:05:05.207Z,6.40
2017-11-01T01:07:33.554Z,7.53
2017-11-01T01:10:01.866Z,6.73
2017-11-01T01:12:30.232Z,7.27
2017-11-01T01:14:58.532Z,6.53
2017-11-01T01:17:26.845Z,7.63
2017-11-01T01:19:55.168Z,7.40
2017-11-01T01:22:23.570Z,6.73
2017-11-01T01:24:51.925Z,7.27
2017-11-01T01:27:21.185Z,6.83
2017-11-01T01:29:49.534Z,7.70
2017-11-01T01:32:17.885Z,6.60
2017-11-01T01:34:46.351Z,10.23
2017-11-01T01:37:14.682Z,9.03
2017-11-01T01:39:43.031Z,7.20
2017-11-01T01:42:11.374Z,6.73
2017-11-01T01:44:39.668Z,7.33
2017-11-01T01:47:08.024Z,7.73
2017-11-01T01:49:36.354Z,7.93
2017-11-01T01:52:04.669Z,6.87
2017-11-01T01:54:32.982Z,7.93
2017-11-01T01:57:01.633Z,7.00
2017-11-01T01:59:29.944Z,6.37
2017-11-01T02:01:58.312Z,7.50
2017-11-01T02:04:26.629Z,7.53
2017-11-01T02:06:54.949Z,7.27
2017-11-01T02:09:23.272Z,6.27
2017-11-01T02:11:51.731Z,6.80
2017-11-01T02:14:20.048Z,7.17
2017-11-01T02:16:48.400Z,6.80
2017-11-01T02:19:16.776Z,7.13
2017-11-01T02:21:45.080Z,7.17
2017-11-01T02:24:13.396Z,6.10
2017-11-01T02:26:42.397Z,6.77
2017-11-01T02:29:10.708Z,7.07
2017-11-01T02:31:39.031Z,7.67
2017-11-01T02:34:07.436Z,7.63
2017-11-01T02:36:35.755Z,8.03
2017-11-01T02:39:04.085Z,6.13
2017-11-01T02:41:32.859Z,7.63
2017-11-01T02:44:01.205Z,6.43
2017-11-01T02:46:29.525Z,6.90
2017-11-01T02:48:57.861Z,8.07
2017-11-01T02:51:26.168Z,7.53
2017-11-01T02:53:54.500Z,8.27
2017-11-01T02:56:23.736Z,7.43
2017-11-01T02:58:52.057Z,6.77
2017-11-01T03:01:20.487Z,6.90
2017-11-01T03:03:48.808Z,6.30
2017-11-01T03:06:17.140Z,7.60
2017-11-01T03:08:45.481Z,6.17
2017-11-01T03:11:13.812Z,5.80
2017-11-01T03:13:42.144Z,7.00
2017-11-01T03:16:10.545Z,6.63
2017-11-01T03:18:38.861Z,5.40
2017-11-01T03:21:07.197Z,5.77
2017-11-01T03:23:35.517Z,6.20
2017-11-01T03:26:03.829Z,7.10
2017-11-01T03:28:32.164Z,5.97
2017-11-01T03:31:00.476Z,6.10
2017-11-01T03:33:29.673Z,7.33
2017-11-01T03:35:58.000Z,5.93
2017-11-01T03:38:26.320Z,6.37
2017-11-01T03:40:54.673Z,5.93
2017-11-01T03:43:22.972Z,5.10
2017-11-01T03:45:51.288Z,5.90
2017-11-01T03:48:19.943Z,7.43
2017-11-01T03:50:48.270Z,5.77
2017-11-01T03:53:17.549Z,5.10
2017-11-01T03:55:45.880Z,5.00
2017-11-01T03:58:14.184Z,6.13
2017-11-01T04:00:42.590Z,4.40
2017-11-01T04:03:11.309Z,4.43
2017-11-01T04:05:39.688Z,5.23
2017-11-01T04:08:07.984Z,4.73
2017-11-01T04:10:36.300Z,5.57
2017-11-01T04:13:04.621Z,5.27
2017-11-01T04:15:32.916Z,4.63
2017-11-01T04:18:02.050Z,4.83
2017-11-01T04:20:30.374Z,4.23
2017-11-01T04:22:58.715Z,5.60
2017-11-01T04:25:27.042Z,6.60
2017-11-01T04:27:55.361Z,4.63
2017-11-01T04:30:24.096Z,4.27
2017-11-01T04:32:52.472Z,6.60
2017-11-01T04:35:20.802Z,5.57
2017-11-01T04:37:49.091Z,5.10
2017-11-01T04:40:17.429Z,4.10
2017-11-01T04:42:45.728Z,4.60
2017-11-01T04:45:14.063Z,5.17
2017-11-01T04:47:42.396Z,4.97
2017-11-01T04:50:10.708Z,3.80
2017-11-01T04:52:40.788Z,5.07
2017-11-01T04:55:12.110Z,4.87
2017-11-01T04:57:41.349Z,4.47
2017-11-01T05:00:15.342Z,5.40
2017-11-01T05:02:43.688Z,4.13
2017-11-01T05:05:14.597Z,5.40
2017-11-01T05:07:42.946Z,5.40
2017-11-01T05:10:16.056Z,5.40
2017-11-01T05:12:44.374Z,5.73
2017-11-01T05:15:13.462Z,4.77
2017-11-01T05:17:41.776Z,4.80
2017-11-01T05:20:10.094Z,4.97
2017-11-01T05:22:38.474Z,5.03
2017-11-01T05:25:07.716Z,4.43
2017-11-01T05:27:36.059Z,5.17
2017-11-01T05:30:04.393Z,4.73
2017-11-01T05:32:32.914Z,4.90
2017-11-01T05:35:03.050Z,4.50
2017-11-01T05:37:31.890Z,5.40
2017-11-01T05:40:00.256Z,5.00
2017-11-01T05:53:34.897Z,5.10
2017-11-01T06:04:50.776Z,5.03
2017-11-01T06:07:29.031Z,5.03
2017-11-01T06:24:02.816Z,4.80
2017-11-01T06:26:34.972Z,4.93
2017-11-01T06:32:19.067Z,5.37
2017-11-01T06:34:47.507Z,5.27
2017-11-01T06:37:16.580Z,5.03
2017-11-01T06:39:44.988Z,5.73
2017-11-01T06:42:13.330Z,5.70
2017-11-01T06:44:41.669Z,6.13
2017-11-01T06:47:09.972Z,6.00
2017-11-01T06:49:38.323Z,6.07
2017-11-01T06:52:06.639Z,5.17
2017-11-01T06:54:34.945Z,5.13
2017-11-01T06:57:03.303Z,5.53
2017-11-01T06:59:31.677Z,6.13
2017-11-01T07:02:00.123Z,5.43
2017-11-01T07:04:28.746Z,6.30
2017-11-01T07:06:59.669Z,6.70
2017-11-01T07:09:27.984Z,7.20
2017-11-01T07:11:56.391Z,6.40
2017-11-01T07:14:24.741Z,6.23
2017-11-01T07:16:53.118Z,5.13
2017-11-01T07:19:21.423Z,5.70
2017-11-01T07:21:49.746Z,6.40
2017-11-01T07:24:18.153Z,5.33
2017-11-01T07:26:46.520Z,5.93
2017-11-01T07:29:14.917Z,5.03
2017-11-01T07:31:43.376Z,6.00
2017-11-01T07:34:11.820Z,4.90
2017-11-01T07:36:40.195Z,5.80
2017-11-01T07:39:08.607Z,5.50
2017-11-01T07:41:37.023Z,5.40
2017-11-01T07:44:05.333Z,5.10
2017-11-01T07:46:33.698Z,5.87
2017-11-01T07:49:02.065Z,5.83
2017-11-01T07:51:30.488Z,6.10
2017-11-01T07:53:58.810Z,5.37
2017-11-01T07:56:27.161Z,5.10
2017-11-01T07:58:55.512Z,6.07
2017-11-01T08:01:23.987Z,4.70
2017-11-01T08:03:52.368Z,5.20
2017-11-01T08:06:20.739Z,5.50
2017-11-01T08:08:49.078Z,5.17
2017-11-01T08:11:17.528Z,5.53
2017-11-01T08:13:45.895Z,5.80
2017-11-01T08:16:14.261Z,5.00
2017-11-01T08:18:43.039Z,5.53
2017-11-01T08:21:11.413Z,5.07
2017-11-01T08:23:39.773Z,5.00
2017-11-01T08:26:08.140Z,4.50
2017-11-01T08:28:36.543Z,4.77
2017-11-01T08:31:04.898Z,5.53
2017-11-01T08:33:33.284Z,4.80
2017-11-01T08:36:01.664Z,5.73
2017-11-01T08:38:29.983Z,4.90
2017-11-01T08:40:58.374Z,5.37
2017-11-01T08:43:26.721Z,4.50
2017-11-01T08:45:55.291Z,4.57
2017-11-01T08:48:23.603Z,4.93
2017-11-01T08:50:51.979Z,4.40
2017-11-01T08:53:20.342Z,4.97
2017-11-01T08:55:48.745Z,4.73
2017-11-01T08:58:17.234Z,5.00
2017-11-01T09:00:45.685Z,5.50
2017-11-01T09:03:14.389Z,5.20
2017-11-01T09:05:42.732Z,4.70
2017-11-01T09:08:11.129Z,4.80
2017-11-01T09:10:39.556Z,5.10
2017-11-01T09:13:07.979Z,5.10
2017-11-01T09:15:36.377Z,4.73
2017-11-01T09:18:04.794Z,4.63
2017-11-01T09:20:33.197Z,5.60
2017-11-01T09:23:01.631Z,3.50
2017-11-01T09:25:30.029Z,4.47
2017-11-01T09:27:58.348Z,4.00
2017-11-01T09:30:26.725Z,4.10
2017-11-01T09:32:55.090Z,4.27
2017-11-01T09:35:23.486Z,3.97
2017-11-01T09:37:51.888Z,3.93
2017-11-01T09:40:20.273Z,3.87
2017-11-01T09:42:48.643Z,4.10
2017-11-01T09:45:17.044Z,4.30
2017-11-01T09:47:45.567Z,3.23
2017-11-01T09:50:13.940Z,3.90
2017-11-01T09:52:44.530Z,4.27
2017-11-01T09:55:12.865Z,4.23
2017-11-01T09:57:41.178Z,3.87
2017-11-01T10:00:09.609Z,3.70
2017-11-01T10:02:37.957Z,4.33
2017-11-01T10:05:06.280Z,3.63
2017-11-01T10:07:34.674Z,3.60
2017-11-01T10:10:03.023Z,3.67
2017-11-01T10:12:31.406Z,4.70
2017-11-01T10:14:59.800Z,4.97
2017-11-01T10:17:28.152Z,4.43
2017-11-01T10:19:56.460Z,4.40
2017-11-01T10:22:24.817Z,4.77
2017-11-01T10:24:53.254Z,4.80
2017-11-01T10:27:21.589Z,5.10
2017-11-01T10:29:49.924Z,5.30
2017-11-01T10:32:18.365Z,5.80
2017-11-01T10:34:46.756Z,5.17
2017-11-01T10:37:15.930Z,5.73
2017-11-01T10:39:44.276Z,5.23
2017-11-01T10:42:12.581Z,6.00
2017-11-01T10:44:40.921Z,6.07
2017-11-01T10:47:09.265Z,4.73
2017-11-01T10:49:37.702Z,5.90
2017-11-01T10:52:06.089Z,6.47
2017-11-01T10:54:34.794Z,5.33
2017-11-01T10:57:03.132Z,5.30
2017-11-01T10:59:31.447Z,5.40
2017-11-01T11:02:00.160Z,5.50
2017-11-01T11:04:28.553Z,5.93
2017-11-01T11:06:56.960Z,5.00
2017-11-01T11:09:25.370Z,5.73
2017-11-01T11:11:53.733Z,6.70
2017-11-01T11:14:22.076Z,6.17
2017-11-01T11:16:50.392Z,6.00
2017-11-01T11:19:18.780Z,6.23
2017-11-01T11:21:47.210Z,6.53
2017-11-01T11:24:15.560Z,6.03
2017-11-01T11:26:43.978Z,6.87
2017-11-01T11:29:12.414Z,6.87
2017-11-01T11:31:40.871Z,6.67
2017-11-01T11:34:09.652Z,5.87
2017-11-01T11:36:37.991Z,5.87
2017-11-01T11:39:06.360Z,7.37
2017-11-01T11:41:34.824Z,6.93
2017-11-01T11:44:03.151Z,6.80
2017-11-01T11:46:31.525Z,7.30
2017-11-01T11:48:59.840Z,6.53
2017-11-01T11:51:28.169Z,6.23
2017-11-01T11:53:56.583Z,7.90
2017-11-01T11:56:25.113Z,6.37
2017-11-01T11:58:59.284Z,6.57
2017-11-01T12:01:33.712Z,7.73
2017-11-01T12:04:08.233Z,6.67
2017-11-01T12:06:42.558Z,7.90
2017-11-01T12:09:16.897Z,6.33
2017-11-01T12:11:51.115Z,8.03
2017-11-01T12:14:25.372Z,7.43
2017-11-01T12:17:01.417Z,7.43
2017-11-01T12:19:37.122Z,7.70
2017-11-01T12:22:11.330Z,7.00
2017-11-01T12:24:45.741Z,9.73
2017-11-01T12:27:20.091Z,7.50
2017-11-01T12:29:54.871Z,6.60
2017-11-01T12:32:29.069Z,8.47
2017-11-01T12:35:03.449Z,8.20
2017-11-01T12:37:37.653Z,7.67
2017-11-01T12:40:11.850Z,8.90
2017-11-01T12:42:46.206Z,6.87
2017-11-01T12:45:20.374Z,7.80
2017-11-01T12:47:54.653Z,6.17
2017-11-01T12:50:28.953Z,7.10
2017-11-01T12:53:03.170Z,7.57
2017-11-01T12:55:38.241Z,7.70
2017-11-01T12:58:13.198Z,7.53
2017-11-01T13:00:47.482Z,5.67
2017-11-01T13:03:21.878Z,6.80
2017-11-01T13:05:56.036Z,6.73
2017-11-01T13:08:30.227Z,6.73
2017-11-01T13:11:04.567Z,6.70
2017-11-01T13:13:38.782Z,7.20
2017-11-01T13:16:13.170Z,6.60
2017-11-01T13:18:47.457Z,8.83
2017-11-01T13:21:21.615Z,7.07
2017-11-01T13:23:56.004Z,7.00
2017-11-01T13:26:30.181Z,6.53
2017-11-01T13:29:04.513Z,5.83
2017-11-01T13:31:38.721Z,6.27
2017-11-01T13:34:12.983Z,6.50
2017-11-01T13:36:47.135Z,6.30
2017-11-01T13:39:21.448Z,6.33
2017-11-01T13:41:55.858Z,6.40
2017-11-01T13:44:30.575Z,6.10
2017-11-01T13:47:07.370Z,6.40
2017-11-01T13:49:41.676Z,5.73
2017-11-01T13:52:16.504Z,4.10
2017-11-01T13:54:51.942Z,4.87
2017-11-01T13:57:26.463Z,4.60
2017-11-01T14:00:01.916Z,4.27
2017-11-01T14:02:36.255Z,4.03
2017-11-01T14:05:10.712Z,4.73
2017-11-01T14:07:44.960Z,4.93
2017-11-01T14:10:19.245Z,3.30
2017-11-01T14:12:54.414Z,3.70
2017-11-01T14:15:28.746Z,4.17
2017-11-01T14:18:03.990Z,3.90
2017-11-01T14:20:41.305Z,4.17
2017-11-01T14:23:15.635Z,3.27
2017-11-01T14:25:50.088Z,4.20
2017-11-01T14:28:24.393Z,2.53
2017-11-01T14:30:58.673Z,4.00
2017-11-01T14:33:33.986Z,3.43
2017-11-01T14:36:12.666Z,4.80
2017-11-01T14:38:48.240Z,3.17
2017-11-01T14:41:23.992Z,2.77
2017-11-01T14:43:58.330Z,2.40
2017-11-01T14:46:32.529Z,3.70
2017-11-01T14:49:07.001Z,3.47
2017-11-01T14:51:41.194Z,3.30
2017-11-01T14:54:15.450Z,4.07
2017-11-01T14:56:50.617Z,2.83
2017-11-01T14:59:24.899Z,3.50
2017-11-01T15:01:59.105Z,2.97
2017-11-01T15:04:33.597Z,2.90
2017-11-01T15:07:07.854Z,2.47
2017-11-01T15:09:42.363Z,3.73
2017-11-01T15:12:16.588Z,2.77
2017-11-01T15:14:50.861Z,2.50
2017-11-01T15:17:25.109Z,2.90
2017-11-01T15:19:59.455Z,2.50
2017-11-01T15:22:33.752Z,5.23
2017-11-01T15:25:07.988Z,3.20
2017-11-01T15:27:42.539Z,3.23
2017-11-01T15:30:18.609Z,3.10
2017-11-01T15:32:54.355Z,3.73
2017-11-01T15:35:28.522Z,2.63
2017-11-01T15:38:03.291Z,3.33
2017-11-01T15:40:37.538Z,2.97
2017-11-01T15:43:11.794Z,3.10
2017-11-01T15:45:46.269Z,4.40
2017-11-01T15:48:20.736Z,3.67
2017-11-01T15:50:55.106Z,2.50
2017-11-01T15:53:29.458Z,3.37
2017-11-01T15:56:03.628Z,2.43
2017-11-01T15:58:40.034Z,2.90
2017-11-01T16:01:14.471Z,2.93
2017-11-01T16:03:48.667Z,2.50
2017-11-01T16:06:22.866Z,3.57
2017-11-01T16:08:57.185Z,2.70
2017-11-01T16:11:31.496Z,2.40
2017-11-01T16:14:05.964Z,2.80
2017-11-01T16:16:40.257Z,3.37
2017-11-01T16:19:14.608Z,3.33
2017-11-01T16:21:48.858Z,3.10
2017-11-01T16:24:23.249Z,2.93
2017-11-01T16:26:57.629Z,2.70
2017-11-01T16:29:31.818Z,3.13
2017-11-01T16:32:06.113Z,2.80
2017-11-01T16:34:40.404Z,3.30
2017-11-01T16:37:14.871Z,3.83
2017-11-01T16:39:49.313Z,3.10
2017-11-01T16:42:23.565Z,4.07
2017-11-01T16:44:57.913Z,4.00
2017-11-01T16:47:32.366Z,3.37
2017-11-01T16:50:06.739Z,4.40
2017-11-01T16:52:40.956Z,3.97
2017-11-01T16:55:15.261Z,3.67
2017-11-01T16:57:49.407Z,3.57
2017-11-01T17:00:23.632Z,3.20
2017-11-01T17:02:57.984Z,3.77
2017-11-01T17:05:32.357Z,3.77
2017-11-01T17:08:06.677Z,3.77
2017-11-01T17:10:40.954Z,4.07
2017-11-01T17:13:15.385Z,3.77
2017-11-01T17:15:50.516Z,4.13
2017-11-01T17:18:24.924Z,4.30
2017-11-01T17:20:59.189Z,4.27
2017-11-01T17:23:33.373Z,4.47
2017-11-01T17:26:07.608Z,5.83
2017-11-01T17:28:41.887Z,5.77
2017-11-01T17:31:16.195Z,6.10
2017-11-01T17:33:50.471Z,6.17
2017-11-01T17:36:25.027Z,5.40
2017-11-01T17:38:59.427Z,5.40
2017-11-01T17:41:33.971Z,6.03
2017-11-01T17:44:08.327Z,5.87
2017-11-01T17:46:42.736Z,5.50
2017-11-01T17:49:17.042Z,6.60
2017-11-01T17:51:51.360Z,6.43
2017-11-01T17:54:25.713Z,7.10
2017-11-01T17:57:00.306Z,6.40
2017-11-01T17:59:34.501Z,5.73
2017-11-01T18:02:08.893Z,5.97
2017-11-01T18:04:43.441Z,6.53
2017-11-01T18:07:17.685Z,5.20
2017-11-01T18:09:52.402Z,6.60
2017-11-01T18:12:26.726Z,5.60
2017-11-01T18:15:01.093Z,4.73
2017-11-01T18:17:35.286Z,5.70
2017-11-01T18:20:09.708Z,5.97
2017-11-01T18:22:45.118Z,5.70
2017-11-01T18:25:19.284Z,5.60
2017-11-01T18:27:53.469Z,5.97
2017-11-01T18:30:27.622Z,6.13
2017-11-01T18:33:04.191Z,6.70
2017-11-01T18:35:38.535Z,6.67
2017-11-01T18:38:12.879Z,9.13
2017-11-01T18:40:48.475Z,7.37
2017-11-01T18:43:22.875Z,9.00
2017-11-01T18:45:58.897Z,8.43
2017-11-01T18:48:33.581Z,8.00
2017-11-01T18:51:08.023Z,8.33
2017-11-01T18:53:45.046Z,9.63
2017-11-01T18:56:19.395Z,7.20
2017-11-01T18:58:53.644Z,7.07
2017-11-01T19:01:28.057Z,7.30
2017-11-01T19:04:03.186Z,6.40
2017-11-01T19:06:37.594Z,8.50
2017-11-01T19:09:12.052Z,8.60
2017-11-01T19:11:46.253Z,9.30
2017-11-01T19:14:20.673Z,7.90
2017-11-01T19:16:55.156Z,7.87
2017-11-01T19:19:29.425Z,7.50
2017-11-01T19:22:03.608Z,6.97
2017-11-01T19:24:39.518Z,7.20
2017-11-01T19:27:13.803Z,7.57
2017-11-01T19:29:48.229Z,7.97
2017-11-01T19:32:22.581Z,8.23
2017-11-01T19:34:56.884Z,7.50
2017-11-01T19:37:31.306Z,7.93
2017-11-01T19:40:05.615Z,8.30
2017-11-01T19:42:39.999Z,8.60
2017-11-01T19:45:14.302Z,7.27
2017-11-01T19:47:48.520Z,7.40
2017-11-01T19:50:22.917Z,8.33
2017-11-01T19:52:57.210Z,9.07
2017-11-01T19:55:31.947Z,9.53
2017-11-01T19:58:06.242Z,10.60
2017-11-01T20:00:40.599Z,11.63
2017-11-01T20:03:15.117Z,9.30
2017-11-01T20:05:49.559Z,8.23
2017-11-01T20:08:23.799Z,7.93
2017-11-01T20:10:58.164Z,11.30
2017-11-01T20:13:32.572Z,9.70
2017-11-01T20:16:06.905Z,8.20
2017-11-01T20:18:41.257Z,8.30
2017-11-01T20:21:16.005Z,9.43
2017-11-01T20:23:50.172Z,9.90
2017-11-01T20:26:24.527Z,8.70
2017-11-01T20:28:58.830Z,9.77
2017-11-01T20:31:33.248Z,8.73
2017-11-01T20:34:07.540Z,8.53
2017-11-01T20:36:42.029Z,7.73
2017-11-01T20:39:16.321Z,8.63
2017-11-01T20:41:50.759Z,7.70
2017-11-01T20:44:25.151Z,7.73
2017-11-01T20:46:59.342Z,8.73
2017-11-01T20:49:33.712Z,7.60
2017-11-01T20:52:08.440Z,8.50
2017-11-01T20:54:42.649Z,7.70
2017-11-01T20:57:17.172Z,9.00
2017-11-01T20:59:51.508Z,7.40
2017-11-01T21:02:26.010Z,8.23
2017-11-01T21:05:01.377Z,7.33
2017-11-01T21:07:35.855Z,7.73
2017-11-01T21:10:10.019Z,8.17
2017-11-01T21:12:44.355Z,7.80
2017-11-01T21:15:18.768Z,8.33
2017-11-01T21:17:53.687Z,7.80
2017-11-01T21:20:28.150Z,8.30
2017-11-01T21:23:02.480Z,6.80
2017-11-01T21:25:36.823Z,6.40
2017-11-01T21:28:11.246Z,7.17
2017-11-01T21:30:45.578Z,6.37
2017-11-01T21:33:20.356Z,6.63
2017-11-01T21:35:54.713Z,9.23
2017-11-01T21:38:29.001Z,6.50
2017-11-01T21:41:03.302Z,6.10
2017-11-01T21:43:37.598Z,6.93
2017-11-01T21:46:11.895Z,6.90
2017-11-01T21:48:46.100Z,6.33
2017-11-01T21:51:20.257Z,7.23
2017-11-01T21:53:55.498Z,6.43
2017-11-01T21:56:29.696Z,6.20
2017-11-01T21:59:04.064Z,7.13
2017-11-01T22:01:38.429Z,5.50
2017-11-01T22:04:12.673Z,6.60
2017-11-01T22:06:46.940Z,6.80
2017-11-01T22:09:22.362Z,6.83
2017-11-01T22:11:56.757Z,6.60
2017-11-01T22:14:31.041Z,5.93
2017-11-01T22:17:05.341Z,6.87
2017-11-01T22:19:39.754Z,7.63
2017-11-01T22:22:14.822Z,6.50
2017-11-01T22:24:49.145Z,7.00
2017-11-01T22:27:23.493Z,8.40
2017-11-01T22:29:57.781Z,6.40
2017-11-01T22:32:32.170Z,6.17
2017-11-01T22:35:06.652Z,6.30
2017-11-01T22:37:40.993Z,6.10
2017-11-01T22:40:15.239Z,7.27
2017-11-01T22:42:49.468Z,7.00
2017-11-01T22:45:23.896Z,6.30
2017-11-01T22:47:59.835Z,6.60
2017-11-01T22:50:34.165Z,6.37
2017-11-01T22:53:08.365Z,6.90
2017-11-01T22:55:42.687Z,7.90
2017-11-01T22:58:16.999Z,8.83
2017-11-01T23:00:51.519Z,6.60
2017-11-01T23:03:25.714Z,7.80
2017-11-01T23:05:59.986Z,7.77
2017-11-01T23:08:34.291Z,7.50
2017-11-01T23:11:08.631Z,7.63
2017-11-01T23:13:42.837Z,7.60
2017-11-01T23:16:17.080Z,8.30
2017-11-01T23:18:51.310Z,7.30
2017-11-01T23:21:25.582Z,7.30
2017-11-01T23:24:04.274Z,7.30
2017-11-01T23:26:38.490Z,7.50
2017-11-01T23:29:12.815Z,8.23
2017-11-01T23:31:48.549Z,7.87
2017-11-01T23:34:22.683Z,5.50
2017-11-01T23:36:56.992Z,6.97
2017-11-01T23:39:31.221Z,5.13
2017-11-01T23:42:05.624Z,5.93
2017-11-01T23:44:39.770Z,5.23
2017-11-01T23:47:14.094Z,6.30
2017-11-01T23:49:48.402Z,5.90
2017-11-01T23:52:22.813Z,4.97
2017-11-01T23:54:57.120Z,4.73
2017-11-01T23:57:31.281Z,5.20
